Big Bear Station Historical Data
Daily Summary for March 24, 2019 Units:  English    Metric   Both
Next Day »
Daily Weekly Monthly Yearly Custom
  High: Low: Average:
Temperature: 54.1 °F 22.3 °F 36.8 °F
Dew Point: 40.3 °F 14.7 °F 27 °F
Humidity: 96% 22% 72%
Wind Speed: 5.3mph 0.0mph 1.1mph
Wind Gust: -999.0mph - -
Wind- - West
Pressure: 23.63 in 23.48 in -
Precipitation: 0.00 in    
Historical Graphs
 
 
Tabular Data for March 24, 2019
Time Temperature Dew Point Pressure Wind Wind Speed Wind Gust Humidity Rainfall Rate (Hourly)
00:03 29.5 °F 28.0 °F 23.49 in Calm   -999.0 mph 94% 0.00 in
00:19 30.0 °F 28.7 °F 23.48 in Calm   -999.0 mph 95% 0.00 in
00:34 29.1 °F 27.6 °F 23.48 in Calm   -999.0 mph 94% 0.00 in
00:49 28.0 °F 26.8 °F 23.49 in South 1.7 mph -999.0 mph 95% 0.00 in
01:04 27.7 °F 26.5 °F 23.48 in Calm   -999.0 mph 95% 0.00 in
01:19 27.1 °F 26.1 °F 23.49 in Calm   -999.0 mph 96% 0.00 in
01:35 26.8 °F 25.8 °F 23.49 in Calm   -999.0 mph 96% 0.00 in
01:50 26.6 °F 25.6 °F 23.49 in Calm   -999.0 mph 96% 0.00 in
02:05 26.4 °F 25.4 °F 23.49 in SSW 2.2 mph -999.0 mph 96% 0.00 in
02:20 25.9 °F 24.7 °F 23.50 in Calm   -999.0 mph 95% 0.00 in
02:35 25.9 °F 23.9 °F 23.50 in Calm   -999.0 mph 92% 0.00 in
02:51 25.5 °F 23.2 °F 23.50 in Calm   -999.0 mph 91% 0.00 in
03:06 25.7 °F 23.4 °F 23.50 in South 3.2 mph -999.0 mph 91% 0.00 in
03:21 25.5 °F 23.5 °F 23.50 in Calm   -999.0 mph 92% 0.00 in
03:37 25.7 °F 21.5 °F 23.50 in SSW 2.2 mph -999.0 mph 84% 0.00 in
03:52 25.2 °F 21.3 °F 23.50 in SSE 1.7 mph -999.0 mph 85% 0.00 in
04:07 25.2 °F 22.1 °F 23.50 in SSW 2.7 mph -999.0 mph 88% 0.00 in
04:22 25.5 °F 22.4 °F 23.51 in Calm   -999.0 mph 88% 0.00 in
04:37 25.2 °F 22.4 °F 23.51 in Calm   -999.0 mph 89% 0.00 in
04:53 24.8 °F 21.2 °F 23.51 in Calm   -999.0 mph 86% 0.00 in
05:08 25.0 °F 21.4 °F 23.51 in Calm   -999.0 mph 86% 0.00 in
05:23 24.1 °F 20.2 °F 23.51 in Calm   -999.0 mph 85% 0.00 in
05:38 24.1 °F 20.5 °F 23.51 in Calm   -999.0 mph 86% 0.00 in
05:53 22.8 °F 19.8 °F 23.51 in Calm   -999.0 mph 88% 0.00 in
06:09 23.2 °F 20.2 °F 23.51 in Calm   -999.0 mph 88% 0.00 in
06:24 23.5 °F 20.5 °F 23.51 in Calm   -999.0 mph 88% 0.00 in
06:39 22.8 °F 19.8 °F 23.52 in Calm   -999.0 mph 88% 0.00 in
06:54 22.6 °F 19.0 °F 23.53 in Calm   -999.0 mph 86% 0.00 in
07:09 22.3 °F 17.9 °F 23.53 in SSE 1.1 mph -999.0 mph 83% 0.00 in
07:25 22.5 °F 18.4 °F 23.53 in Calm   -999.0 mph 84% 0.00 in
07:40 22.5 °F 18.7 °F 23.54 in Calm   -999.0 mph 85% 0.00 in
07:55 22.8 °F 18.7 °F 23.54 in Calm   -999.0 mph 84% 0.00 in
08:10 23.5 °F 19.9 °F 23.55 in Calm   -999.0 mph 86% 0.00 in
08:26 24.6 °F 21.0 °F 23.55 in Calm   -999.0 mph 86% 0.00 in
08:41 25.9 °F 22.8 °F 23.55 in Calm   -999.0 mph 88% 0.00 in
08:56 27.0 °F 23.9 °F 23.56 in Calm   -999.0 mph 88% 0.00 in
09:11 29.1 °F 25.2 °F 23.56 in Calm   -999.0 mph 85% 0.00 in
09:26 30.0 °F 24.0 °F 23.57 in Calm   -999.0 mph 78% 0.00 in
09:42 31.1 °F 24.1 °F 23.57 in Calm   -999.0 mph 75% 0.00 in
09:57 33.8 °F 21.4 °F 23.57 in WNW 2.2 mph -999.0 mph 60% 0.00 in
10:12 36.1 °F 21.9 °F 23.58 in NW 2.2 mph -999.0 mph 56% 0.00 in
10:27 38.3 °F 23.1 °F 23.58 in Calm   -999.0 mph 54% 0.00 in
10:42 41.0 °F 22.8 °F 23.57 in Calm   -999.0 mph 48% 0.00 in
10:58 45.5 °F 22.0 °F 23.58 in Calm   -999.0 mph 39% 0.00 in
11:13 47.8 °F 23.4 °F 23.58 in Calm   -999.0 mph 38% 0.00 in
11:28 51.3 °F 16.6 °F 23.58 in Calm   -999.0 mph 25% 0.00 in
11:43 52.5 °F 14.7 °F 23.58 in NW 2.7 mph -999.0 mph 22% 0.00 in
11:59 53.2 °F 15.3 °F 23.58 in NNW 3.2 mph -999.0 mph 22% 0.00 in
12:14 52.7 °F 25.1 °F 23.58 in North 3.2 mph -999.0 mph 34% 0.00 in
12:30 52.7 °F 25.1 °F 23.58 in NW 3.7 mph -999.0 mph 34% 0.00 in
12:46 53.6 °F 25.2 °F 23.58 in NW 5.3 mph -999.0 mph 33% 0.00 in
13:01 53.6 °F 24.4 °F 23.58 in NNW 4.2 mph -999.0 mph 32% 0.00 in
13:16 54.1 °F 24.9 °F 23.58 in NNW 2.7 mph -999.0 mph 32% 0.00 in
13:32 53.8 °F 28.1 °F 23.58 in NNW 4.7 mph -999.0 mph 37% 0.00 in
13:47 54.0 °F 29.6 °F 23.58 in WNW 3.7 mph -999.0 mph 39% 0.00 in
14:02 53.8 °F 29.4 °F 23.58 in NW 4.7 mph -999.0 mph 39% 0.00 in
14:17 53.6 °F 29.2 °F 23.58 in NNW 3.7 mph -999.0 mph 39% 0.00 in
14:32 53.8 °F 31.2 °F 23.58 in NE 3.7 mph -999.0 mph 42% 0.00 in
14:48 53.8 °F 30.0 °F 23.58 in West 4.7 mph -999.0 mph 40% 0.00 in
15:03 53.1 °F 31.8 °F 23.58 in NW 3.7 mph -999.0 mph 44% 0.00 in
15:18 52.3 °F 33.7 °F 23.58 in NW 4.2 mph -999.0 mph 49% 0.00 in
15:34 51.8 °F 34.7 °F 23.58 in NNW 3.7 mph -999.0 mph 52% 0.00 in
15:49 52.2 °F 36.1 °F 23.58 in NNW 4.7 mph -999.0 mph 54% 0.00 in
16:04 51.6 °F 36.4 °F 23.58 in NW 3.7 mph -999.0 mph 56% 0.00 in
16:19 50.7 °F 36.9 °F 23.58 in Calm   -999.0 mph 59% 0.00 in
16:35 50.7 °F 36.5 °F 23.58 in NW 3.2 mph -999.0 mph 58% 0.00 in
16:50 50.5 °F 36.3 °F 23.58 in NE 3.2 mph -999.0 mph 58% 0.00 in
17:05 50.5 °F 37.1 °F 23.58 in NW 3.2 mph -999.0 mph 60% 0.00 in
17:21 52.0 °F 38.1 °F 23.58 in NNW 2.2 mph -999.0 mph 59% 0.00 in
17:36 50.0 °F 38.3 °F 23.58 in NW 3.7 mph -999.0 mph 64% 0.00 in
17:51 48.7 °F 39.4 °F 23.59 in Calm   -999.0 mph 70% 0.00 in
18:06 47.8 °F 39.9 °F 23.59 in Calm   -999.0 mph 74% 0.00 in
18:21 46.8 °F 40.3 °F 23.59 in Calm   -999.0 mph 78% 0.00 in
18:37 45.7 °F 39.6 °F 23.59 in Calm   -999.0 mph 79% 0.00 in
18:52 44.6 °F 33.9 °F 23.60 in Calm   -999.0 mph 66% 0.00 in
19:07 43.2 °F 33.0 °F 23.60 in Calm   -999.0 mph 67% 0.00 in
19:22 41.9 °F 32.1 °F 23.60 in Calm   -999.0 mph 68% 0.00 in
19:37 41.4 °F 32.3 °F 23.60 in Calm   -999.0 mph 70% 0.00 in
19:53 40.3 °F 32.0 °F 23.61 in Calm   -999.0 mph 72% 0.00 in
20:08 39.4 °F 32.1 °F 23.61 in Calm   -999.0 mph 75% 0.00 in
20:23 38.3 °F 32.0 °F 23.61 in Calm   -999.0 mph 78% 0.00 in
20:38 37.2 °F 31.3 °F 23.62 in Calm   -999.0 mph 79% 0.00 in
20:54 36.7 °F 31.1 °F 23.63 in Calm   -999.0 mph 80% 0.00 in
21:09 36.0 °F 31.0 °F 23.63 in Calm   -999.0 mph 82% 0.00 in
21:24 35.2 °F 30.6 °F 23.63 in Calm   -999.0 mph 83% 0.00 in
21:39 34.3 °F 29.7 °F 23.63 in Calm   -999.0 mph 83% 0.00 in
21:54 33.8 °F 29.5 °F 23.63 in Calm   -999.0 mph 84% 0.00 in
22:10 33.4 °F 29.4 °F 23.63 in Calm   -999.0 mph 85% 0.00 in
22:25 32.9 °F 29.2 °F 23.63 in Calm   -999.0 mph 86% 0.00 in
22:40 32.2 °F 28.5 °F 23.63 in Calm   -999.0 mph 86% 0.00 in
22:55 31.6 °F 27.9 °F 23.63 in Calm   -999.0 mph 86% 0.00 in
23:10 31.1 °F 27.7 °F 23.62 in Calm   -999.0 mph 87% 0.00 in
23:26 30.9 °F 28.0 °F 23.62 in Calm   -999.0 mph 89% 0.00 in
23:41 30.6 °F 27.7 °F 23.62 in Calm   -999.0 mph 89% 0.00 in
23:56 30.0 °F 27.2 °F 23.62 in Calm   -999.0 mph 89% 0.00 in
Big Bear CA Weather